sensor_id;sensor_type;location;lat;lon;timestamp;temperature;humidity
27016;DHT22;14557;0.000;0.000;2022-12-17T00:00:10;18.90;61.00
27016;DHT22;14557;0.000;0.000;2022-12-17T00:02:58;18.80;61.20
27016;DHT22;14557;0.000;0.000;2022-12-17T00:05:43;18.80;60.90
27016;DHT22;14557;0.000;0.000;2022-12-17T00:08:28;18.80;60.90
27016;DHT22;14557;0.000;0.000;2022-12-17T00:11:12;18.80;61.10
27016;DHT22;14557;0.000;0.000;2022-12-17T00:13:56;18.80;61.30
27016;DHT22;14557;0.000;0.000;2022-12-17T00:16:40;18.80;61.20
27016;DHT22;14557;0.000;0.000;2022-12-17T00:19:24;18.80;61.20
27016;DHT22;14557;0.000;0.000;2022-12-17T00:22:08;18.80;61.10
27016;DHT22;14557;0.000;0.000;2022-12-17T00:24:52;18.80;60.80
27016;DHT22;14557;0.000;0.000;2022-12-17T00:27:36;18.70;60.70
27016;DHT22;14557;0.000;0.000;2022-12-17T00:30:20;18.70;60.30
27016;DHT22;14557;0.000;0.000;2022-12-17T00:33:04;18.70;60.00
27016;DHT22;14557;0.000;0.000;2022-12-17T00:35:52;18.70;59.80
27016;DHT22;14557;0.000;0.000;2022-12-17T00:38:37;18.70;59.90
27016;DHT22;14557;0.000;0.000;2022-12-17T00:41:22;18.70;60.20
27016;DHT22;14557;0.000;0.000;2022-12-17T00:44:06;18.70;60.10
27016;DHT22;14557;0.000;0.000;2022-12-17T00:46:51;18.60;59.90
27016;DHT22;14557;0.000;0.000;2022-12-17T00:49:35;18.70;59.80
27016;DHT22;14557;0.000;0.000;2022-12-17T00:52:19;18.60;59.60
27016;DHT22;14557;0.000;0.000;2022-12-17T00:55:04;18.60;59.20
27016;DHT22;14557;0.000;0.000;2022-12-17T00:57:55;18.60;59.20
27016;DHT22;14557;0.000;0.000;2022-12-17T01:00:40;18.60;60.00
27016;DHT22;14557;0.000;0.000;2022-12-17T01:03:25;18.60;59.30
27016;DHT22;14557;0.000;0.000;2022-12-17T01:06:10;18.60;59.40
27016;DHT22;14557;0.000;0.000;2022-12-17T01:08:54;18.50;59.30
27016;DHT22;14557;0.000;0.000;2022-12-17T01:11:39;18.50;59.20
27016;DHT22;14557;0.000;0.000;2022-12-17T01:14:24;18.60;59.30
27016;DHT22;14557;0.000;0.000;2022-12-17T01:17:08;18.50;59.10
27016;DHT22;14557;0.000;0.000;2022-12-17T01:19:53;18.50;59.10
27016;DHT22;14557;0.000;0.000;2022-12-17T01:22:37;18.50;59.00
27016;DHT22;14557;0.000;0.000;2022-12-17T01:25:32;18.50;59.00
27016;DHT22;14557;0.000;0.000;2022-12-17T01:28:21;18.50;58.90
27016;DHT22;14557;0.000;0.000;2022-12-17T01:31:05;18.40;58.60
27016;DHT22;14557;0.000;0.000;2022-12-17T01:33:50;18.40;58.50
27016;DHT22;14557;0.000;0.000;2022-12-17T01:36:34;18.40;58.30
27016;DHT22;14557;0.000;0.000;2022-12-17T01:39:18;18.40;58.30
27016;DHT22;14557;0.000;0.000;2022-12-17T01:42:02;18.40;58.00
27016;DHT22;14557;0.000;0.000;2022-12-17T01:44:56;18.40;57.80
27016;DHT22;14557;0.000;0.000;2022-12-17T01:47:50;18.40;57.80
27016;DHT22;14557;0.000;0.000;2022-12-17T01:50:40;18.40;57.80
27016;DHT22;14557;0.000;0.000;2022-12-17T01:53:29;18.40;57.80
27016;DHT22;14557;0.000;0.000;2022-12-17T01:56:15;18.30;57.70
27016;DHT22;14557;0.000;0.000;2022-12-17T01:59:00;18.30;57.70
27016;DHT22;14557;0.000;0.000;2022-12-17T02:01:45;18.30;57.90
27016;DHT22;14557;0.000;0.000;2022-12-17T02:04:34;18.30;57.80
27016;DHT22;14557;0.000;0.000;2022-12-17T02:10:42;18.30;57.80
27016;DHT22;14557;0.000;0.000;2022-12-17T02:13:33;18.20;57.80
27016;DHT22;14557;0.000;0.000;2022-12-17T02:22:19;18.20;57.70
27016;DHT22;14557;0.000;0.000;2022-12-17T02:25:17;18.20;57.70
27016;DHT22;14557;0.000;0.000;2022-12-17T02:28:05;18.20;57.60
27016;DHT22;14557;0.000;0.000;2022-12-17T02:30:50;18.20;57.50
27016;DHT22;14557;0.000;0.000;2022-12-17T02:33:35;18.20;57.60
27016;DHT22;14557;0.000;0.000;2022-12-17T02:36:19;18.20;57.50
27016;DHT22;14557;0.000;0.000;2022-12-17T02:39:17;18.10;57.40
27016;DHT22;14557;0.000;0.000;2022-12-17T02:42:01;18.10;57.40
27016;DHT22;14557;0.000;0.000;2022-12-17T02:44:46;18.10;57.60
27016;DHT22;14557;0.000;0.000;2022-12-17T02:47:30;18.10;57.30
27016;DHT22;14557;0.000;0.000;2022-12-17T02:50:15;18.10;57.20
27016;DHT22;14557;0.000;0.000;2022-12-17T02:52:59;18.10;57.30
27016;DHT22;14557;0.000;0.000;2022-12-17T02:55:45;18.10;57.90
27016;DHT22;14557;0.000;0.000;2022-12-17T02:58:29;18.10;57.30
27016;DHT22;14557;0.000;0.000;2022-12-17T03:01:13;18.10;57.20
27016;DHT22;14557;0.000;0.000;2022-12-17T03:03:57;18.10;57.20
27016;DHT22;14557;0.000;0.000;2022-12-17T03:06:41;18.00;57.10
27016;DHT22;14557;0.000;0.000;2022-12-17T03:09:25;18.00;57.10
27016;DHT22;14557;0.000;0.000;2022-12-17T03:12:09;18.00;57.30
27016;DHT22;14557;0.000;0.000;2022-12-17T03:14:54;18.00;57.20
27016;DHT22;14557;0.000;0.000;2022-12-17T03:17:38;18.00;57.20
27016;DHT22;14557;0.000;0.000;2022-12-17T03:20:22;18.00;57.40
27016;DHT22;14557;0.000;0.000;2022-12-17T03:23:08;18.00;57.20
27016;DHT22;14557;0.000;0.000;2022-12-17T03:25:52;18.00;57.20
27016;DHT22;14557;0.000;0.000;2022-12-17T03:28:36;18.00;57.30
27016;DHT22;14557;0.000;0.000;2022-12-17T03:31:21;17.90;57.20
27016;DHT22;14557;0.000;0.000;2022-12-17T03:34:05;17.90;57.20
27016;DHT22;14557;0.000;0.000;2022-12-17T03:36:50;17.90;57.10
27016;DHT22;14557;0.000;0.000;2022-12-17T03:39:34;17.90;57.10
27016;DHT22;14557;0.000;0.000;2022-12-17T03:42:18;17.90;57.00
27016;DHT22;14557;0.000;0.000;2022-12-17T03:45:02;17.90;57.00
27016;DHT22;14557;0.000;0.000;2022-12-17T03:47:47;17.90;57.00
27016;DHT22;14557;0.000;0.000;2022-12-17T03:50:31;17.90;56.90
27016;DHT22;14557;0.000;0.000;2022-12-17T03:53:15;17.90;56.90
27016;DHT22;14557;0.000;0.000;2022-12-17T03:55:59;17.80;56.70
27016;DHT22;14557;0.000;0.000;2022-12-17T03:58:43;17.80;56.70
27016;DHT22;14557;0.000;0.000;2022-12-17T04:01:27;17.80;56.70
27016;DHT22;14557;0.000;0.000;2022-12-17T04:04:11;17.80;56.70
27016;DHT22;14557;0.000;0.000;2022-12-17T04:06:56;17.80;56.70
27016;DHT22;14557;0.000;0.000;2022-12-17T04:09:40;17.80;56.70
27016;DHT22;14557;0.000;0.000;2022-12-17T04:12:24;17.70;57.30
27016;DHT22;14557;0.000;0.000;2022-12-17T04:15:09;17.80;56.70
27016;DHT22;14557;0.000;0.000;2022-12-17T04:17:53;17.80;56.70
27016;DHT22;14557;0.000;0.000;2022-12-17T04:20:37;17.70;56.60
27016;DHT22;14557;0.000;0.000;2022-12-17T04:23:38;17.70;56.60
27016;DHT22;14557;0.000;0.000;2022-12-17T04:26:22;17.70;56.60
27016;DHT22;14557;0.000;0.000;2022-12-17T04:29:06;17.70;56.70
27016;DHT22;14557;0.000;0.000;2022-12-17T04:31:50;17.70;56.70
27016;DHT22;14557;0.000;0.000;2022-12-17T04:34:34;17.70;56.70
27016;DHT22;14557;0.000;0.000;2022-12-17T04:37:19;17.70;56.70
27016;DHT22;14557;0.000;0.000;2022-12-17T04:40:03;17.70;56.70
27016;DHT22;14557;0.000;0.000;2022-12-17T04:42:47;17.70;56.70
27016;DHT22;14557;0.000;0.000;2022-12-17T04:45:31;17.70;56.60
27016;DHT22;14557;0.000;0.000;2022-12-17T04:48:15;17.60;56.60
27016;DHT22;14557;0.000;0.000;2022-12-17T04:51:00;17.70;56.60
27016;DHT22;14557;0.000;0.000;2022-12-17T04:53:44;17.60;56.60
27016;DHT22;14557;0.000;0.000;2022-12-17T04:56:28;17.60;56.50
27016;DHT22;14557;0.000;0.000;2022-12-17T04:59:12;17.60;56.60
27016;DHT22;14557;0.000;0.000;2022-12-17T05:01:56;17.60;56.50
27016;DHT22;14557;0.000;0.000;2022-12-17T05:04:40;17.60;56.40
27016;DHT22;14557;0.000;0.000;2022-12-17T05:07:24;17.60;56.40
27016;DHT22;14557;0.000;0.000;2022-12-17T05:10:09;17.60;56.40
27016;DHT22;14557;0.000;0.000;2022-12-17T05:12:57;17.60;56.40
27016;DHT22;14557;0.000;0.000;2022-12-17T05:15:41;17.60;56.50
27016;DHT22;14557;0.000;0.000;2022-12-17T05:18:25;17.50;56.50
27016;DHT22;14557;0.000;0.000;2022-12-17T05:21:09;17.50;56.60
27016;DHT22;14557;0.000;0.000;2022-12-17T05:23:53;17.50;56.60
27016;DHT22;14557;0.000;0.000;2022-12-17T05:26:37;17.50;56.50
27016;DHT22;14557;0.000;0.000;2022-12-17T05:29:21;17.50;56.50
27016;DHT22;14557;0.000;0.000;2022-12-17T05:32:05;17.50;56.50
27016;DHT22;14557;0.000;0.000;2022-12-17T05:34:50;17.50;56.60
27016;DHT22;14557;0.000;0.000;2022-12-17T05:37:34;17.50;56.50
27016;DHT22;14557;0.000;0.000;2022-12-17T05:40:18;17.50;56.50
27016;DHT22;14557;0.000;0.000;2022-12-17T05:43:05;17.40;56.40
27016;DHT22;14557;0.000;0.000;2022-12-17T05:45:50;17.40;56.30
27016;DHT22;14557;0.000;0.000;2022-12-17T05:48:35;17.40;56.40
27016;DHT22;14557;0.000;0.000;2022-12-17T05:51:20;17.40;56.30
27016;DHT22;14557;0.000;0.000;2022-12-17T05:54:05;17.40;56.30
27016;DHT22;14557;0.000;0.000;2022-12-17T05:56:49;17.40;56.20
27016;DHT22;14557;0.000;0.000;2022-12-17T05:59:33;17.40;56.20
27016;DHT22;14557;0.000;0.000;2022-12-17T06:02:17;17.40;56.10
27016;DHT22;14557;0.000;0.000;2022-12-17T06:05:01;17.30;56.10
27016;DHT22;14557;0.000;0.000;2022-12-17T06:07:46;17.30;56.00
27016;DHT22;14557;0.000;0.000;2022-12-17T06:10:30;17.30;56.00
27016;DHT22;14557;0.000;0.000;2022-12-17T06:13:14;17.30;56.00
27016;DHT22;14557;0.000;0.000;2022-12-17T06:15:58;17.30;56.10
27016;DHT22;14557;0.000;0.000;2022-12-17T06:18:42;17.30;56.10
27016;DHT22;14557;0.000;0.000;2022-12-17T06:21:26;17.30;56.10
27016;DHT22;14557;0.000;0.000;2022-12-17T06:24:10;17.30;56.10
27016;DHT22;14557;0.000;0.000;2022-12-17T06:26:54;17.30;56.10
27016;DHT22;14557;0.000;0.000;2022-12-17T06:29:38;17.30;56.10
27016;DHT22;14557;0.000;0.000;2022-12-17T06:32:23;17.20;56.00
27016;DHT22;14557;0.000;0.000;2022-12-17T06:35:07;17.20;56.20
27016;DHT22;14557;0.000;0.000;2022-12-17T06:37:59;17.20;56.20
27016;DHT22;14557;0.000;0.000;2022-12-17T06:40:44;17.20;56.20
27016;DHT22;14557;0.000;0.000;2022-12-17T06:43:28;17.20;56.30
27016;DHT22;14557;0.000;0.000;2022-12-17T06:46:12;17.20;56.20
27016;DHT22;14557;0.000;0.000;2022-12-17T06:48:56;17.20;56.40
27016;DHT22;14557;0.000;0.000;2022-12-17T06:51:40;17.20;56.30
27016;DHT22;14557;0.000;0.000;2022-12-17T06:54:24;17.20;56.30
27016;DHT22;14557;0.000;0.000;2022-12-17T06:57:08;17.10;56.30
27016;DHT22;14557;0.000;0.000;2022-12-17T06:59:52;17.10;56.30
27016;DHT22;14557;0.000;0.000;2022-12-17T07:02:36;17.10;56.30
27016;DHT22;14557;0.000;0.000;2022-12-17T07:05:20;17.10;56.30
27016;DHT22;14557;0.000;0.000;2022-12-17T07:08:05;17.20;56.40
27016;DHT22;14557;0.000;0.000;2022-12-17T07:10:49;17.10;56.30
27016;DHT22;14557;0.000;0.000;2022-12-17T07:13:33;17.20;56.40
27016;DHT22;14557;0.000;0.000;2022-12-17T07:16:17;17.20;56.40
27016;DHT22;14557;0.000;0.000;2022-12-17T07:19:01;17.10;56.30
27016;DHT22;14557;0.000;0.000;2022-12-17T07:21:46;17.10;56.30
27016;DHT22;14557;0.000;0.000;2022-12-17T07:24:30;17.10;56.30
27016;DHT22;14557;0.000;0.000;2022-12-17T07:27:14;17.10;56.20
27016;DHT22;14557;0.000;0.000;2022-12-17T07:29:58;17.10;56.20
27016;DHT22;14557;0.000;0.000;2022-12-17T07:32:43;17.10;56.20
27016;DHT22;14557;0.000;0.000;2022-12-17T07:35:27;17.10;56.20
27016;DHT22;14557;0.000;0.000;2022-12-17T07:38:11;17.10;56.20
27016;DHT22;14557;0.000;0.000;2022-12-17T07:40:57;17.10;56.30
27016;DHT22;14557;0.000;0.000;2022-12-17T07:43:41;17.10;56.30
27016;DHT22;14557;0.000;0.000;2022-12-17T07:46:25;17.10;56.30
27016;DHT22;14557;0.000;0.000;2022-12-17T07:49:09;17.10;56.30
27016;DHT22;14557;0.000;0.000;2022-12-17T07:51:53;17.10;56.30
27016;DHT22;14557;0.000;0.000;2022-12-17T07:54:38;17.10;56.30
27016;DHT22;14557;0.000;0.000;2022-12-17T07:57:22;17.10;56.30
27016;DHT22;14557;0.000;0.000;2022-12-17T08:00:07;17.10;56.30
27016;DHT22;14557;0.000;0.000;2022-12-17T08:03:00;17.00;56.30
27016;DHT22;14557;0.000;0.000;2022-12-17T08:05:45;17.10;56.40
27016;DHT22;14557;0.000;0.000;2022-12-17T08:08:29;17.10;56.40
27016;DHT22;14557;0.000;0.000;2022-12-17T08:11:14;17.10;56.40
27016;DHT22;14557;0.000;0.000;2022-12-17T08:13:58;17.00;56.40
27016;DHT22;14557;0.000;0.000;2022-12-17T08:16:42;17.00;56.30
27016;DHT22;14557;0.000;0.000;2022-12-17T08:19:26;17.00;56.20
27016;DHT22;14557;0.000;0.000;2022-12-17T08:22:10;17.00;56.10
27016;DHT22;14557;0.000;0.000;2022-12-17T08:24:54;17.00;56.10
27016;DHT22;14557;0.000;0.000;2022-12-17T08:27:38;17.10;56.10
27016;DHT22;14557;0.000;0.000;2022-12-17T08:30:22;17.00;56.10
27016;DHT22;14557;0.000;0.000;2022-12-17T08:33:07;17.00;56.10
27016;DHT22;14557;0.000;0.000;2022-12-17T08:35:55;17.00;56.10
27016;DHT22;14557;0.000;0.000;2022-12-17T08:38:40;17.00;56.60
27016;DHT22;14557;0.000;0.000;2022-12-17T08:41:25;17.00;55.80
27016;DHT22;14557;0.000;0.000;2022-12-17T08:44:09;17.10;55.80
27016;DHT22;14557;0.000;0.000;2022-12-17T08:46:53;17.10;55.90
27016;DHT22;14557;0.000;0.000;2022-12-17T08:49:37;17.10;55.80
27016;DHT22;14557;0.000;0.000;2022-12-17T08:52:21;17.10;56.20
27016;DHT22;14557;0.000;0.000;2022-12-17T08:55:06;17.10;56.10
27016;DHT22;14557;0.000;0.000;2022-12-17T08:57:57;17.10;56.00
27016;DHT22;14557;0.000;0.000;2022-12-17T09:00:43;17.10;56.00
27016;DHT22;14557;0.000;0.000;2022-12-17T09:03:27;17.10;56.00
27016;DHT22;14557;0.000;0.000;2022-12-17T09:06:12;17.10;56.60
27016;DHT22;14557;0.000;0.000;2022-12-17T09:08:56;17.20;57.50
27016;DHT22;14557;0.000;0.000;2022-12-17T09:11:41;17.20;57.40
27016;DHT22;14557;0.000;0.000;2022-12-17T09:14:25;17.20;60.40
27016;DHT22;14557;0.000;0.000;2022-12-17T09:17:10;17.40;61.40
27016;DHT22;14557;0.000;0.000;2022-12-17T09:19:54;17.60;59.20
27016;DHT22;14557;0.000;0.000;2022-12-17T09:22:38;17.50;58.00
27016;DHT22;14557;0.000;0.000;2022-12-17T09:25:23;17.50;57.90
27016;DHT22;14557;0.000;0.000;2022-12-17T09:28:07;17.60;57.50
27016;DHT22;14557;0.000;0.000;2022-12-17T09:30:51;17.60;58.20
27016;DHT22;14557;0.000;0.000;2022-12-17T09:33:36;17.60;59.00
27016;DHT22;14557;0.000;0.000;2022-12-17T09:36:20;17.60;59.50
27016;DHT22;14557;0.000;0.000;2022-12-17T09:39:04;17.50;58.60
27016;DHT22;14557;0.000;0.000;2022-12-17T09:42:17;17.60;58.70
27016;DHT22;14557;0.000;0.000;2022-12-17T09:45:11;17.60;58.20
27016;DHT22;14557;0.000;0.000;2022-12-17T09:50:55;17.60;57.50
27016;DHT22;14557;0.000;0.000;2022-12-17T09:53:52;17.60;57.40
27016;DHT22;14557;0.000;0.000;2022-12-17T09:56:38;17.60;58.80
27016;DHT22;14557;0.000;0.000;2022-12-17T09:59:28;17.70;59.40
27016;DHT22;14557;0.000;0.000;2022-12-17T10:02:19;17.70;58.70
27016;DHT22;14557;0.000;0.000;2022-12-17T10:05:22;17.80;58.10
27016;DHT22;14557;0.000;0.000;2022-12-17T10:08:12;17.80;59.30
27016;DHT22;14557;0.000;0.000;2022-12-17T10:11:09;17.90;58.20
27016;DHT22;14557;0.000;0.000;2022-12-17T10:13:54;18.00;57.70
27016;DHT22;14557;0.000;0.000;2022-12-17T10:16:44;18.00;57.00
27016;DHT22;14557;0.000;0.000;2022-12-17T10:19:33;18.10;56.60
27016;DHT22;14557;0.000;0.000;2022-12-17T10:22:20;18.20;57.30
27016;DHT22;14557;0.000;0.000;2022-12-17T10:25:18;18.20;57.20
27016;DHT22;14557;0.000;0.000;2022-12-17T10:28:14;18.30;59.20
27016;DHT22;14557;0.000;0.000;2022-12-17T10:30:59;18.40;60.70
27016;DHT22;14557;0.000;0.000;2022-12-17T10:33:44;18.50;65.70
27016;DHT22;14557;0.000;0.000;2022-12-17T10:36:30;18.60;58.60
27016;DHT22;14557;0.000;0.000;2022-12-17T10:39:21;18.70;56.90
27016;DHT22;14557;0.000;0.000;2022-12-17T10:42:41;18.70;56.40
27016;DHT22;14557;0.000;0.000;2022-12-17T10:45:29;18.80;56.50
27016;DHT22;14557;0.000;0.000;2022-12-17T10:48:34;18.80;56.30
27016;DHT22;14557;0.000;0.000;2022-12-17T10:51:29;18.80;55.70
27016;DHT22;14557;0.000;0.000;2022-12-17T10:54:32;18.80;54.70
27016;DHT22;14557;0.000;0.000;2022-12-17T10:57:33;18.80;54.60
27016;DHT22;14557;0.000;0.000;2022-12-17T11:00:22;18.80;54.40
27016;DHT22;14557;0.000;0.000;2022-12-17T11:06:13;18.80;54.40
27016;DHT22;14557;0.000;0.000;2022-12-17T11:08:59;18.80;54.50
27016;DHT22;14557;0.000;0.000;2022-12-17T11:11:45;18.70;54.70
27016;DHT22;14557;0.000;0.000;2022-12-17T11:14:31;18.70;54.70
27016;DHT22;14557;0.000;0.000;2022-12-17T11:17:18;18.70;54.80
27016;DHT22;14557;0.000;0.000;2022-12-17T11:20:20;18.70;54.80
27016;DHT22;14557;0.000;0.000;2022-12-17T11:23:07;18.60;54.70
27016;DHT22;14557;0.000;0.000;2022-12-17T11:26:02;18.60;54.60
27016;DHT22;14557;0.000;0.000;2022-12-17T11:28:47;18.60;54.50
27016;DHT22;14557;0.000;0.000;2022-12-17T11:35:15;18.70;54.70
27016;DHT22;14557;0.000;0.000;2022-12-17T11:38:20;18.70;54.50
27016;DHT22;14557;0.000;0.000;2022-12-17T11:44:49;18.60;54.50
27016;DHT22;14557;0.000;0.000;2022-12-17T11:56:46;18.60;54.70
27016;DHT22;14557;0.000;0.000;2022-12-17T12:00:16;18.60;55.00
27016;DHT22;14557;0.000;0.000;2022-12-17T12:02:50;18.60;54.70
27016;DHT22;14557;0.000;0.000;2022-12-17T12:27:02;18.50;54.80
27016;DHT22;14557;0.000;0.000;2022-12-17T12:30:13;18.50;54.70
27016;DHT22;14557;0.000;0.000;2022-12-17T12:33:08;18.50;54.70
27016;DHT22;14557;0.000;0.000;2022-12-17T12:35:59;18.40;54.80
27016;DHT22;14557;0.000;0.000;2022-12-17T12:38:52;18.40;54.80
27016;DHT22;14557;0.000;0.000;2022-12-17T12:44:47;18.40;54.80
27016;DHT22;14557;0.000;0.000;2022-12-17T12:47:51;18.40;54.70
27016;DHT22;14557;0.000;0.000;2022-12-17T13:03:22;18.50;55.90
27016;DHT22;14557;0.000;0.000;2022-12-17T13:06:06;18.60;56.30
27016;DHT22;14557;0.000;0.000;2022-12-17T13:08:32;18.50;55.70
27016;DHT22;14557;0.000;0.000;2022-12-17T13:11:29;18.50;56.00
27016;DHT22;14557;0.000;0.000;2022-12-17T13:13:59;18.50;55.20
27016;DHT22;14557;0.000;0.000;2022-12-17T13:19:16;18.50;55.10
27016;DHT22;14557;0.000;0.000;2022-12-17T13:21:43;18.50;55.00
27016;DHT22;14557;0.000;0.000;2022-12-17T13:24:10;18.40;54.90
27016;DHT22;14557;0.000;0.000;2022-12-17T13:29:28;18.40;55.00
27016;DHT22;14557;0.000;0.000;2022-12-17T13:34:43;18.40;54.80
27016;DHT22;14557;0.000;0.000;2022-12-17T13:37:18;18.40;54.80
27016;DHT22;14557;0.000;0.000;2022-12-17T13:42:28;18.40;54.80
27016;DHT22;14557;0.000;0.000;2022-12-17T13:44:55;18.30;54.70
27016;DHT22;14557;0.000;0.000;2022-12-17T13:47:28;18.30;54.70
27016;DHT22;14557;0.000;0.000;2022-12-17T13:49:56;18.30;54.70
27016;DHT22;14557;0.000;0.000;2022-12-17T13:52:29;18.30;54.60
27016;DHT22;14557;0.000;0.000;2022-12-17T13:55:15;18.30;54.60
27016;DHT22;14557;0.000;0.000;2022-12-17T13:57:45;18.30;54.60
27016;DHT22;14557;0.000;0.000;2022-12-17T14:00:22;18.30;54.70
27016;DHT22;14557;0.000;0.000;2022-12-17T14:02:49;18.30;54.60
27016;DHT22;14557;0.000;0.000;2022-12-17T14:05:42;18.30;54.50
27016;DHT22;14557;0.000;0.000;2022-12-17T14:08:12;18.20;54.40
27016;DHT22;14557;0.000;0.000;2022-12-17T14:10:48;18.30;54.60
27016;DHT22;14557;0.000;0.000;2022-12-17T14:13:16;18.20;54.40
27016;DHT22;14557;0.000;0.000;2022-12-17T14:15:49;18.20;54.30
27016;DHT22;14557;0.000;0.000;2022-12-17T14:18:18;18.20;54.40
27016;DHT22;14557;0.000;0.000;2022-12-17T14:20:45;18.20;54.30
27016;DHT22;14557;0.000;0.000;2022-12-17T14:23:26;18.20;54.30
27016;DHT22;14557;0.000;0.000;2022-12-17T14:25:53;18.20;54.30
27016;DHT22;14557;0.000;0.000;2022-12-17T14:31:45;18.20;54.30
27016;DHT22;14557;0.000;0.000;2022-12-17T14:34:06;18.20;54.20
27016;DHT22;14557;0.000;0.000;2022-12-17T14:36:39;18.20;54.20
27016;DHT22;14557;0.000;0.000;2022-12-17T14:39:16;18.20;54.20
27016;DHT22;14557;0.000;0.000;2022-12-17T14:41:42;18.20;54.20
27016;DHT22;14557;0.000;0.000;2022-12-17T14:44:28;18.20;54.10
27016;DHT22;14557;0.000;0.000;2022-12-17T14:50:22;18.20;54.10
27016;DHT22;14557;0.000;0.000;2022-12-17T14:52:39;18.20;54.10
27016;DHT22;14557;0.000;0.000;2022-12-17T14:55:32;18.20;54.10
27016;DHT22;14557;0.000;0.000;2022-12-17T14:58:14;18.20;54.10
27016;DHT22;14557;0.000;0.000;2022-12-17T15:00:49;18.20;54.10
27016;DHT22;14557;0.000;0.000;2022-12-17T15:03:22;18.20;54.10
27016;DHT22;14557;0.000;0.000;2022-12-17T15:06:09;18.20;54.10
27016;DHT22;14557;0.000;0.000;2022-12-17T15:08:47;18.20;54.10
27016;DHT22;14557;0.000;0.000;2022-12-17T15:11:16;18.20;54.10
27016;DHT22;14557;0.000;0.000;2022-12-17T15:13:42;18.20;54.10
27016;DHT22;14557;0.000;0.000;2022-12-17T15:16:08;18.20;54.10
27016;DHT22;14557;0.000;0.000;2022-12-17T15:18:35;18.10;54.00
27016;DHT22;14557;0.000;0.000;2022-12-17T15:21:01;18.20;54.00
27016;DHT22;14557;0.000;0.000;2022-12-17T15:23:28;18.10;54.00
27016;DHT22;14557;0.000;0.000;2022-12-17T15:25:54;18.20;54.00
27016;DHT22;14557;0.000;0.000;2022-12-17T15:28:20;18.10;53.90
27016;DHT22;14557;0.000;0.000;2022-12-17T15:30:47;18.10;54.00
27016;DHT22;14557;0.000;0.000;2022-12-17T15:33:14;18.10;54.00
27016;DHT22;14557;0.000;0.000;2022-12-17T15:35:40;18.10;53.90
27016;DHT22;14557;0.000;0.000;2022-12-17T15:38:07;18.10;54.00
27016;DHT22;14557;0.000;0.000;2022-12-17T15:40:35;18.10;54.00
27016;DHT22;14557;0.000;0.000;2022-12-17T15:43:01;18.20;54.00
27016;DHT22;14557;0.000;0.000;2022-12-17T15:45:43;18.10;53.90
27016;DHT22;14557;0.000;0.000;2022-12-17T15:48:10;18.10;53.90
27016;DHT22;14557;0.000;0.000;2022-12-17T15:50:36;18.20;53.90
27016;DHT22;14557;0.000;0.000;2022-12-17T15:53:02;18.10;53.90
27016;DHT22;14557;0.000;0.000;2022-12-17T15:55:29;18.20;53.90
27016;DHT22;14557;0.000;0.000;2022-12-17T15:57:54;18.10;53.80
27016;DHT22;14557;0.000;0.000;2022-12-17T16:00:20;18.20;53.90
27016;DHT22;14557;0.000;0.000;2022-12-17T16:02:47;18.10;53.80
27016;DHT22;14557;0.000;0.000;2022-12-17T16:05:13;18.10;53.80
27016;DHT22;14557;0.000;0.000;2022-12-17T16:07:39;18.10;53.80
27016;DHT22;14557;0.000;0.000;2022-12-17T16:10:05;18.10;53.80
27016;DHT22;14557;0.000;0.000;2022-12-17T16:12:31;18.10;53.80
27016;DHT22;14557;0.000;0.000;2022-12-17T16:14:57;18.10;53.80
27016;DHT22;14557;0.000;0.000;2022-12-17T16:17:23;18.10;53.80
27016;DHT22;14557;0.000;0.000;2022-12-17T16:19:48;18.10;54.40
27016;DHT22;14557;0.000;0.000;2022-12-17T16:22:14;18.10;53.80
27016;DHT22;14557;0.000;0.000;2022-12-17T16:24:40;18.10;53.80
27016;DHT22;14557;0.000;0.000;2022-12-17T16:27:06;18.10;53.70
27016;DHT22;14557;0.000;0.000;2022-12-17T16:29:32;18.10;53.80
27016;DHT22;14557;0.000;0.000;2022-12-17T16:31:58;18.10;56.60
27016;DHT22;14557;0.000;0.000;2022-12-17T16:34:24;18.10;55.00
27016;DHT22;14557;0.000;0.000;2022-12-17T16:36:50;18.10;54.60
27016;DHT22;14557;0.000;0.000;2022-12-17T16:39:17;18.10;54.50
27016;DHT22;14557;0.000;0.000;2022-12-17T16:41:43;18.10;54.50
27016;DHT22;14557;0.000;0.000;2022-12-17T16:44:09;18.10;54.50
27016;DHT22;14557;0.000;0.000;2022-12-17T16:46:37;18.10;54.40
27016;DHT22;14557;0.000;0.000;2022-12-17T16:49:32;18.10;56.70
27016;DHT22;14557;0.000;0.000;2022-12-17T16:51:58;18.20;55.80
27016;DHT22;14557;0.000;0.000;2022-12-17T16:54:26;18.20;55.40
27016;DHT22;14557;0.000;0.000;2022-12-17T16:56:53;18.30;55.30
27016;DHT22;14557;0.000;0.000;2022-12-17T16:59:19;18.30;55.40
27016;DHT22;14557;0.000;0.000;2022-12-17T17:01:47;18.30;55.30
27016;DHT22;14557;0.000;0.000;2022-12-17T17:04:15;18.30;55.30
27016;DHT22;14557;0.000;0.000;2022-12-17T17:06:42;18.40;55.50
27016;DHT22;14557;0.000;0.000;2022-12-17T17:09:10;18.40;55.30
27016;DHT22;14557;0.000;0.000;2022-12-17T17:11:36;18.30;55.20
27016;DHT22;14557;0.000;0.000;2022-12-17T17:14:02;18.30;55.30
27016;DHT22;14557;0.000;0.000;2022-12-17T17:16:31;18.30;55.30
27016;DHT22;14557;0.000;0.000;2022-12-17T17:18:58;18.30;55.20
27016;DHT22;14557;0.000;0.000;2022-12-17T17:21:27;18.40;55.30
27016;DHT22;14557;0.000;0.000;2022-12-17T17:23:58;18.30;56.20
27016;DHT22;14557;0.000;0.000;2022-12-17T17:26:27;18.30;58.30
27016;DHT22;14557;0.000;0.000;2022-12-17T17:28:53;18.30;57.40
27016;DHT22;14557;0.000;0.000;2022-12-17T17:31:21;18.40;57.40
27016;DHT22;14557;0.000;0.000;2022-12-17T17:33:48;18.40;56.90
27016;DHT22;14557;0.000;0.000;2022-12-17T17:36:24;18.40;56.90
27016;DHT22;14557;0.000;0.000;2022-12-17T17:38:52;18.40;58.20
27016;DHT22;14557;0.000;0.000;2022-12-17T17:41:19;18.40;57.80
27016;DHT22;14557;0.000;0.000;2022-12-17T17:43:45;18.40;57.90
27016;DHT22;14557;0.000;0.000;2022-12-17T17:46:12;18.50;57.90
27016;DHT22;14557;0.000;0.000;2022-12-17T17:48:38;18.50;57.90
27016;DHT22;14557;0.000;0.000;2022-12-17T17:51:13;18.40;57.90
27016;DHT22;14557;0.000;0.000;2022-12-17T17:53:39;18.40;57.90
27016;DHT22;14557;0.000;0.000;2022-12-17T17:56:20;18.40;57.80
27016;DHT22;14557;0.000;0.000;2022-12-17T17:58:51;18.40;57.90
27016;DHT22;14557;0.000;0.000;2022-12-17T18:01:21;18.40;57.90
27016;DHT22;14557;0.000;0.000;2022-12-17T18:03:47;18.40;58.00
27016;DHT22;14557;0.000;0.000;2022-12-17T18:06:13;18.40;58.30
27016;DHT22;14557;0.000;0.000;2022-12-17T18:08:40;18.40;59.00
27016;DHT22;14557;0.000;0.000;2022-12-17T18:11:08;18.50;59.40
27016;DHT22;14557;0.000;0.000;2022-12-17T18:13:35;18.60;60.30
27016;DHT22;14557;0.000;0.000;2022-12-17T18:16:20;18.70;59.60
27016;DHT22;14557;0.000;0.000;2022-12-17T18:18:46;18.80;59.30
27016;DHT22;14557;0.000;0.000;2022-12-17T18:21:17;18.80;59.10
27016;DHT22;14557;0.000;0.000;2022-12-17T18:23:43;18.70;59.10
27016;DHT22;14557;0.000;0.000;2022-12-17T18:26:18;18.80;59.90
27016;DHT22;14557;0.000;0.000;2022-12-17T18:28:45;18.80;60.20
27016;DHT22;14557;0.000;0.000;2022-12-17T18:33:39;18.80;60.00
27016;DHT22;14557;0.000;0.000;2022-12-17T18:36:19;18.80;59.70
27016;DHT22;14557;0.000;0.000;2022-12-17T18:38:45;18.80;59.90
27016;DHT22;14557;0.000;0.000;2022-12-17T18:41:16;18.80;59.70